sensor_id;sensor_type;location;lat;lon;timestamp;temperature;humidity
29575;DHT22;16507;51.046;6.406;2023-05-10T00:00:37;13.30;99.90
29575;DHT22;16507;51.046;6.406;2023-05-10T00:03:02;13.40;99.90
29575;DHT22;16507;51.046;6.406;2023-05-10T00:05:30;13.40;99.90
29575;DHT22;16507;51.046;6.406;2023-05-10T00:07:56;13.30;99.90
29575;DHT22;16507;51.046;6.406;2023-05-10T00:10:22;13.40;99.90
29575;DHT22;16507;51.046;6.406;2023-05-10T00:12:47;13.40;99.90
29575;DHT22;16507;51.046;6.406;2023-05-10T00:15:13;13.40;99.90
29575;DHT22;16507;51.046;6.406;2023-05-10T00:17:38;13.30;99.90
29575;DHT22;16507;51.046;6.406;2023-05-10T00:20:05;13.40;99.90
29575;DHT22;16507;51.046;6.406;2023-05-10T00:22:31;13.30;99.90
29575;DHT22;16507;51.046;6.406;2023-05-10T00:24:57;13.30;99.90
29575;DHT22;16507;51.046;6.406;2023-05-10T00:27:25;13.40;99.90
29575;DHT22;16507;51.046;6.406;2023-05-10T00:29:51;13.40;99.90
29575;DHT22;16507;51.046;6.406;2023-05-10T00:32:18;13.40;99.90
29575;DHT22;16507;51.046;6.406;2023-05-10T00:34:43;13.40;99.90
29575;DHT22;16507;51.046;6.406;2023-05-10T00:37:09;13.40;99.90
29575;DHT22;16507;51.046;6.406;2023-05-10T00:39:34;13.40;99.90
29575;DHT22;16507;51.046;6.406;2023-05-10T00:42:00;13.50;99.90
29575;DHT22;16507;51.046;6.406;2023-05-10T00:44:26;13.50;99.90
29575;DHT22;16507;51.046;6.406;2023-05-10T00:46:51;13.50;99.90
29575;DHT22;16507;51.046;6.406;2023-05-10T00:49:17;13.60;99.90
29575;DHT22;16507;51.046;6.406;2023-05-10T00:51:43;13.50;99.90
29575;DHT22;16507;51.046;6.406;2023-05-10T00:54:14;13.60;99.90
29575;DHT22;16507;51.046;6.406;2023-05-10T00:56:41;13.50;99.90
29575;DHT22;16507;51.046;6.406;2023-05-10T00:59:08;13.60;99.90
29575;DHT22;16507;51.046;6.406;2023-05-10T01:01:34;13.60;99.90
29575;DHT22;16507;51.046;6.406;2023-05-10T01:04:01;13.60;99.90
29575;DHT22;16507;51.046;6.406;2023-05-10T01:06:28;13.60;99.90
29575;DHT22;16507;51.046;6.406;2023-05-10T01:08:54;13.50;99.90
29575;DHT22;16507;51.046;6.406;2023-05-10T01:11:21;13.50;99.90
29575;DHT22;16507;51.046;6.406;2023-05-10T01:13:52;13.60;99.90
29575;DHT22;16507;51.046;6.406;2023-05-10T01:16:21;13.50;99.90
29575;DHT22;16507;51.046;6.406;2023-05-10T01:18:47;13.40;99.90
29575;DHT22;16507;51.046;6.406;2023-05-10T01:35:31;13.40;99.90
29575;DHT22;16507;51.046;6.406;2023-05-10T01:38:21;13.50;99.90
29575;DHT22;16507;51.046;6.406;2023-05-10T01:44:29;13.60;99.90
29575;DHT22;16507;51.046;6.406;2023-05-10T01:46:38;13.40;99.90
29575;DHT22;16507;51.046;6.406;2023-05-10T01:49:19;13.50;99.90
29575;DHT22;16507;51.046;6.406;2023-05-10T01:51:50;13.50;99.90
29575;DHT22;16507;51.046;6.406;2023-05-10T01:54:19;13.50;99.90
29575;DHT22;16507;51.046;6.406;2023-05-10T01:56:48;13.50;99.90
29575;DHT22;16507;51.046;6.406;2023-05-10T01:59:17;13.50;99.90
29575;DHT22;16507;51.046;6.406;2023-05-10T02:01:45;13.50;99.90
29575;DHT22;16507;51.046;6.406;2023-05-10T02:04:15;13.50;99.90
29575;DHT22;16507;51.046;6.406;2023-05-10T02:06:42;13.50;99.90
29575;DHT22;16507;51.046;6.406;2023-05-10T02:09:10;13.50;99.90
29575;DHT22;16507;51.046;6.406;2023-05-10T02:11:38;13.50;99.90
29575;DHT22;16507;51.046;6.406;2023-05-10T02:14:07;13.50;99.90
29575;DHT22;16507;51.046;6.406;2023-05-10T02:16:35;13.40;99.90
29575;DHT22;16507;51.046;6.406;2023-05-10T02:19:02;13.50;99.90
29575;DHT22;16507;51.046;6.406;2023-05-10T02:21:31;13.50;99.90
29575;DHT22;16507;51.046;6.406;2023-05-10T02:23:59;13.40;99.90
29575;DHT22;16507;51.046;6.406;2023-05-10T02:26:26;13.30;99.90
29575;DHT22;16507;51.046;6.406;2023-05-10T02:28:53;13.30;99.90
29575;DHT22;16507;51.046;6.406;2023-05-10T02:31:23;13.30;99.90
29575;DHT22;16507;51.046;6.406;2023-05-10T02:33:50;13.40;99.90
29575;DHT22;16507;51.046;6.406;2023-05-10T02:36:17;13.40;99.90
29575;DHT22;16507;51.046;6.406;2023-05-10T02:38:44;13.30;99.90
29575;DHT22;16507;51.046;6.406;2023-05-10T02:41:11;13.30;99.90
29575;DHT22;16507;51.046;6.406;2023-05-10T02:43:38;13.40;99.90
29575;DHT22;16507;51.046;6.406;2023-05-10T02:46:05;13.40;99.90
29575;DHT22;16507;51.046;6.406;2023-05-10T02:48:30;13.30;99.90
29575;DHT22;16507;51.046;6.406;2023-05-10T02:51:02;13.40;99.90
29575;DHT22;16507;51.046;6.406;2023-05-10T02:53:34;13.30;99.90
29575;DHT22;16507;51.046;6.406;2023-05-10T02:56:05;13.40;99.90
29575;DHT22;16507;51.046;6.406;2023-05-10T02:58:32;13.40;99.90
29575;DHT22;16507;51.046;6.406;2023-05-10T03:00:58;13.30;99.90
29575;DHT22;16507;51.046;6.406;2023-05-10T03:03:24;13.40;99.90
29575;DHT22;16507;51.046;6.406;2023-05-10T03:05:50;13.50;99.90
29575;DHT22;16507;51.046;6.406;2023-05-10T03:08:16;13.40;99.90
29575;DHT22;16507;51.046;6.406;2023-05-10T03:10:50;13.50;99.90
29575;DHT22;16507;51.046;6.406;2023-05-10T03:13:29;13.50;99.90
29575;DHT22;16507;51.046;6.406;2023-05-10T03:16:03;13.40;99.90
29575;DHT22;16507;51.046;6.406;2023-05-10T03:18:50;13.40;99.90
29575;DHT22;16507;51.046;6.406;2023-05-10T03:21:20;13.60;99.90
29575;DHT22;16507;51.046;6.406;2023-05-10T03:23:53;13.50;99.90
29575;DHT22;16507;51.046;6.406;2023-05-10T03:26:29;13.50;99.90
29575;DHT22;16507;51.046;6.406;2023-05-10T03:28:56;13.50;99.90
29575;DHT22;16507;51.046;6.406;2023-05-10T03:31:24;13.50;99.90
29575;DHT22;16507;51.046;6.406;2023-05-10T03:33:50;13.50;99.90
29575;DHT22;16507;51.046;6.406;2023-05-10T03:36:17;13.50;99.90
29575;DHT22;16507;51.046;6.406;2023-05-10T03:38:42;13.40;99.90
29575;DHT22;16507;51.046;6.406;2023-05-10T03:41:08;13.40;99.90
29575;DHT22;16507;51.046;6.406;2023-05-10T03:43:34;13.30;99.90
29575;DHT22;16507;51.046;6.406;2023-05-10T03:46:02;13.40;99.90
29575;DHT22;16507;51.046;6.406;2023-05-10T03:48:28;13.40;99.90
29575;DHT22;16507;51.046;6.406;2023-05-10T03:50:54;13.30;99.90
29575;DHT22;16507;51.046;6.406;2023-05-10T03:53:19;13.30;99.90
29575;DHT22;16507;51.046;6.406;2023-05-10T03:55:45;13.40;99.90
29575;DHT22;16507;51.046;6.406;2023-05-10T03:58:14;13.30;99.90
29575;DHT22;16507;51.046;6.406;2023-05-10T04:00:40;13.40;99.90
29575;DHT22;16507;51.046;6.406;2023-05-10T04:03:09;13.30;99.90
29575;DHT22;16507;51.046;6.406;2023-05-10T04:05:35;13.40;99.90
29575;DHT22;16507;51.046;6.406;2023-05-10T04:08:01;13.40;99.90
29575;DHT22;16507;51.046;6.406;2023-05-10T04:10:27;13.30;99.90
29575;DHT22;16507;51.046;6.406;2023-05-10T04:12:53;13.30;99.90
29575;DHT22;16507;51.046;6.406;2023-05-10T04:15:19;13.30;99.90
29575;DHT22;16507;51.046;6.406;2023-05-10T04:17:44;13.30;99.90
29575;DHT22;16507;51.046;6.406;2023-05-10T04:20:11;13.30;99.90
29575;DHT22;16507;51.046;6.406;2023-05-10T04:22:37;13.30;99.90
29575;DHT22;16507;51.046;6.406;2023-05-10T04:25:03;13.20;99.90
29575;DHT22;16507;51.046;6.406;2023-05-10T04:27:30;13.30;99.90
29575;DHT22;16507;51.046;6.406;2023-05-10T04:29:56;13.20;99.90
29575;DHT22;16507;51.046;6.406;2023-05-10T04:32:22;13.20;99.90
29575;DHT22;16507;51.046;6.406;2023-05-10T04:34:47;13.20;99.90
29575;DHT22;16507;51.046;6.406;2023-05-10T04:37:13;13.20;99.90
29575;DHT22;16507;51.046;6.406;2023-05-10T04:39:38;13.30;99.90
29575;DHT22;16507;51.046;6.406;2023-05-10T04:42:04;13.20;99.90
29575;DHT22;16507;51.046;6.406;2023-05-10T04:44:31;13.20;99.90
29575;DHT22;16507;51.046;6.406;2023-05-10T04:46:57;13.20;99.90
29575;DHT22;16507;51.046;6.406;2023-05-10T04:49:23;13.20;99.90
29575;DHT22;16507;51.046;6.406;2023-05-10T04:51:48;13.30;99.90
29575;DHT22;16507;51.046;6.406;2023-05-10T04:54:14;13.20;99.90
29575;DHT22;16507;51.046;6.406;2023-05-10T04:56:40;13.30;99.90
29575;DHT22;16507;51.046;6.406;2023-05-10T04:59:06;13.20;99.90
29575;DHT22;16507;51.046;6.406;2023-05-10T05:01:32;13.20;99.90
29575;DHT22;16507;51.046;6.406;2023-05-10T05:03:58;13.20;99.90
29575;DHT22;16507;51.046;6.406;2023-05-10T05:06:23;13.30;99.90
29575;DHT22;16507;51.046;6.406;2023-05-10T05:08:50;13.20;99.90
29575;DHT22;16507;51.046;6.406;2023-05-10T05:11:19;13.30;99.90
29575;DHT22;16507;51.046;6.406;2023-05-10T05:13:46;13.30;99.90
29575;DHT22;16507;51.046;6.406;2023-05-10T05:16:11;13.20;99.90
29575;DHT22;16507;51.046;6.406;2023-05-10T05:18:37;13.20;99.90
29575;DHT22;16507;51.046;6.406;2023-05-10T05:21:03;13.30;99.90
29575;DHT22;16507;51.046;6.406;2023-05-10T05:23:28;13.30;99.90
29575;DHT22;16507;51.046;6.406;2023-05-10T05:25:54;13.30;99.90
29575;DHT22;16507;51.046;6.406;2023-05-10T05:28:20;13.30;99.90
29575;DHT22;16507;51.046;6.406;2023-05-10T05:30:46;13.10;99.90
29575;DHT22;16507;51.046;6.406;2023-05-10T05:33:13;13.10;99.90
29575;DHT22;16507;51.046;6.406;2023-05-10T05:35:39;13.20;99.90
29575;DHT22;16507;51.046;6.406;2023-05-10T05:38:04;13.20;99.90
29575;DHT22;16507;51.046;6.406;2023-05-10T05:40:31;13.10;99.90
29575;DHT22;16507;51.046;6.406;2023-05-10T05:42:56;13.10;99.90
29575;DHT22;16507;51.046;6.406;2023-05-10T05:45:22;13.00;99.90
29575;DHT22;16507;51.046;6.406;2023-05-10T05:47:48;13.10;99.90
29575;DHT22;16507;51.046;6.406;2023-05-10T05:50:13;13.10;99.90
29575;DHT22;16507;51.046;6.406;2023-05-10T05:52:39;13.00;99.90
29575;DHT22;16507;51.046;6.406;2023-05-10T05:55:05;13.10;99.90
29575;DHT22;16507;51.046;6.406;2023-05-10T05:57:31;13.10;99.90
29575;DHT22;16507;51.046;6.406;2023-05-10T05:59:56;13.00;99.90
29575;DHT22;16507;51.046;6.406;2023-05-10T06:02:22;13.20;99.90
29575;DHT22;16507;51.046;6.406;2023-05-10T06:04:47;13.10;99.90
29575;DHT22;16507;51.046;6.406;2023-05-10T06:07:13;13.10;99.90
29575;DHT22;16507;51.046;6.406;2023-05-10T06:09:39;13.10;99.90
29575;DHT22;16507;51.046;6.406;2023-05-10T06:12:06;13.30;99.90
29575;DHT22;16507;51.046;6.406;2023-05-10T06:14:32;13.30;99.90
29575;DHT22;16507;51.046;6.406;2023-05-10T06:16:57;13.30;99.90
29575;DHT22;16507;51.046;6.406;2023-05-10T06:19:25;13.20;99.90
29575;DHT22;16507;51.046;6.406;2023-05-10T06:21:51;13.40;99.90
29575;DHT22;16507;51.046;6.406;2023-05-10T06:24:17;13.30;99.90
29575;DHT22;16507;51.046;6.406;2023-05-10T06:26:42;13.30;99.90
29575;DHT22;16507;51.046;6.406;2023-05-10T06:29:08;13.40;99.90
29575;DHT22;16507;51.046;6.406;2023-05-10T06:31:33;13.50;99.90
29575;DHT22;16507;51.046;6.406;2023-05-10T06:33:59;13.50;99.90
29575;DHT22;16507;51.046;6.406;2023-05-10T06:36:25;13.50;99.90
29575;DHT22;16507;51.046;6.406;2023-05-10T06:38:51;13.60;99.90
29575;DHT22;16507;51.046;6.406;2023-05-10T06:41:17;13.50;99.90
29575;DHT22;16507;51.046;6.406;2023-05-10T06:43:42;13.50;99.90
29575;DHT22;16507;51.046;6.406;2023-05-10T06:46:08;13.50;99.90
29575;DHT22;16507;51.046;6.406;2023-05-10T06:48:34;13.50;99.90
29575;DHT22;16507;51.046;6.406;2023-05-10T06:51:00;13.40;99.90
29575;DHT22;16507;51.046;6.406;2023-05-10T06:53:25;13.50;99.90
29575;DHT22;16507;51.046;6.406;2023-05-10T06:55:51;13.40;99.90
29575;DHT22;16507;51.046;6.406;2023-05-10T06:58:16;13.40;99.90
29575;DHT22;16507;51.046;6.406;2023-05-10T07:00:42;13.40;99.90
29575;DHT22;16507;51.046;6.406;2023-05-10T07:03:09;13.20;99.90
29575;DHT22;16507;51.046;6.406;2023-05-10T07:05:36;13.20;99.90
29575;DHT22;16507;51.046;6.406;2023-05-10T07:08:01;13.20;99.90
29575;DHT22;16507;51.046;6.406;2023-05-10T07:10:27;13.20;99.90
29575;DHT22;16507;51.046;6.406;2023-05-10T07:12:53;13.20;99.90
29575;DHT22;16507;51.046;6.406;2023-05-10T07:15:18;13.30;99.90
29575;DHT22;16507;51.046;6.406;2023-05-10T07:17:44;13.40;99.90
29575;DHT22;16507;51.046;6.406;2023-05-10T07:20:11;13.30;99.90
29575;DHT22;16507;51.046;6.406;2023-05-10T07:22:36;13.60;99.90
29575;DHT22;16507;51.046;6.406;2023-05-10T07:25:02;13.70;99.90
29575;DHT22;16507;51.046;6.406;2023-05-10T07:27:28;13.90;99.90
29575;DHT22;16507;51.046;6.406;2023-05-10T07:29:53;14.00;99.90
29575;DHT22;16507;51.046;6.406;2023-05-10T07:32:20;14.10;99.90
29575;DHT22;16507;51.046;6.406;2023-05-10T07:34:45;14.20;99.90
29575;DHT22;16507;51.046;6.406;2023-05-10T07:37:11;14.20;99.90
29575;DHT22;16507;51.046;6.406;2023-05-10T07:39:37;14.20;99.90
29575;DHT22;16507;51.046;6.406;2023-05-10T07:42:03;14.20;99.90
29575;DHT22;16507;51.046;6.406;2023-05-10T07:44:28;14.20;99.90
29575;DHT22;16507;51.046;6.406;2023-05-10T07:46:54;14.20;99.90
29575;DHT22;16507;51.046;6.406;2023-05-10T07:49:21;14.30;99.90
29575;DHT22;16507;51.046;6.406;2023-05-10T07:51:49;14.30;99.90
29575;DHT22;16507;51.046;6.406;2023-05-10T07:54:15;14.30;99.90
29575;DHT22;16507;51.046;6.406;2023-05-10T07:56:41;14.40;99.90
29575;DHT22;16507;51.046;6.406;2023-05-10T07:59:18;14.50;99.90
29575;DHT22;16507;51.046;6.406;2023-05-10T08:01:43;14.50;99.90
29575;DHT22;16507;51.046;6.406;2023-05-10T08:04:09;14.70;99.90
29575;DHT22;16507;51.046;6.406;2023-05-10T08:06:35;14.80;99.90
29575;DHT22;16507;51.046;6.406;2023-05-10T08:09:00;14.70;99.90
29575;DHT22;16507;51.046;6.406;2023-05-10T08:11:26;14.70;99.90
29575;DHT22;16507;51.046;6.406;2023-05-10T08:13:53;14.60;99.90
29575;DHT22;16507;51.046;6.406;2023-05-10T08:16:19;14.60;99.90
29575;DHT22;16507;51.046;6.406;2023-05-10T08:18:46;14.60;99.90
29575;DHT22;16507;51.046;6.406;2023-05-10T08:21:13;14.40;99.90
29575;DHT22;16507;51.046;6.406;2023-05-10T08:23:39;14.40;99.90
29575;DHT22;16507;51.046;6.406;2023-05-10T08:26:04;14.30;99.90
29575;DHT22;16507;51.046;6.406;2023-05-10T08:28:30;14.30;99.90
29575;DHT22;16507;51.046;6.406;2023-05-10T08:30:56;14.30;99.90
29575;DHT22;16507;51.046;6.406;2023-05-10T08:33:21;14.30;99.90
29575;DHT22;16507;51.046;6.406;2023-05-10T08:35:47;14.20;99.90
29575;DHT22;16507;51.046;6.406;2023-05-10T08:38:13;14.40;99.90
29575;DHT22;16507;51.046;6.406;2023-05-10T08:40:41;14.40;99.90
29575;DHT22;16507;51.046;6.406;2023-05-10T08:43:09;14.50;99.90
29575;DHT22;16507;51.046;6.406;2023-05-10T08:45:39;14.60;99.90
29575;DHT22;16507;51.046;6.406;2023-05-10T08:48:06;14.60;99.90
29575;DHT22;16507;51.046;6.406;2023-05-10T08:50:36;14.70;99.90
29575;DHT22;16507;51.046;6.406;2023-05-10T08:53:13;14.80;99.90
29575;DHT22;16507;51.046;6.406;2023-05-10T08:55:40;14.90;99.90
29575;DHT22;16507;51.046;6.406;2023-05-10T08:58:08;15.10;99.90
29575;DHT22;16507;51.046;6.406;2023-05-10T09:00:34;15.10;99.90
29575;DHT22;16507;51.046;6.406;2023-05-10T09:03:01;15.10;99.90
29575;DHT22;16507;51.046;6.406;2023-05-10T09:05:27;15.10;99.90
29575;DHT22;16507;51.046;6.406;2023-05-10T09:07:53;15.10;99.90
29575;DHT22;16507;51.046;6.406;2023-05-10T09:10:20;15.10;99.90
29575;DHT22;16507;51.046;6.406;2023-05-10T09:12:46;15.10;99.90
29575;DHT22;16507;51.046;6.406;2023-05-10T09:15:15;15.10;99.90
29575;DHT22;16507;51.046;6.406;2023-05-10T09:17:41;15.30;99.90
29575;DHT22;16507;51.046;6.406;2023-05-10T09:20:07;15.30;99.90
29575;DHT22;16507;51.046;6.406;2023-05-10T09:22:36;15.20;99.90
29575;DHT22;16507;51.046;6.406;2023-05-10T09:25:11;15.20;99.90
29575;DHT22;16507;51.046;6.406;2023-05-10T09:27:38;15.30;99.90
29575;DHT22;16507;51.046;6.406;2023-05-10T09:30:05;15.20;99.90
29575;DHT22;16507;51.046;6.406;2023-05-10T09:32:47;15.30;99.90
29575;DHT22;16507;51.046;6.406;2023-05-10T09:35:18;15.30;99.90
29575;DHT22;16507;51.046;6.406;2023-05-10T09:37:47;15.20;99.90
29575;DHT22;16507;51.046;6.406;2023-05-10T09:40:18;15.20;99.90
29575;DHT22;16507;51.046;6.406;2023-05-10T09:45:27;15.20;99.90
29575;DHT22;16507;51.046;6.406;2023-05-10T09:47:54;15.50;99.90
29575;DHT22;16507;51.046;6.406;2023-05-10T09:50:20;15.60;99.90
29575;DHT22;16507;51.046;6.406;2023-05-10T09:52:50;15.40;99.90
29575;DHT22;16507;51.046;6.406;2023-05-10T09:55:18;15.30;99.90
29575;DHT22;16507;51.046;6.406;2023-05-10T09:57:44;15.30;99.90
29575;DHT22;16507;51.046;6.406;2023-05-10T10:00:10;15.40;99.90
29575;DHT22;16507;51.046;6.406;2023-05-10T10:02:35;15.40;99.90
29575;DHT22;16507;51.046;6.406;2023-05-10T10:05:02;15.40;99.90
29575;DHT22;16507;51.046;6.406;2023-05-10T10:07:31;15.40;99.90
29575;DHT22;16507;51.046;6.406;2023-05-10T10:09:58;15.50;99.90
29575;DHT22;16507;51.046;6.406;2023-05-10T10:12:25;15.50;99.90
29575;DHT22;16507;51.046;6.406;2023-05-10T10:14:50;15.70;99.90
29575;DHT22;16507;51.046;6.406;2023-05-10T10:17:17;15.90;99.90
29575;DHT22;16507;51.046;6.406;2023-05-10T10:19:42;15.90;99.90
29575;DHT22;16507;51.046;6.406;2023-05-10T10:22:08;15.90;99.90
29575;DHT22;16507;51.046;6.406;2023-05-10T10:24:37;15.80;99.90
29575;DHT22;16507;51.046;6.406;2023-05-10T10:27:19;15.70;99.90
29575;DHT22;16507;51.046;6.406;2023-05-10T10:35:29;15.20;99.90
29575;DHT22;16507;51.046;6.406;2023-05-10T10:37:55;15.20;99.90
29575;DHT22;16507;51.046;6.406;2023-05-10T10:40:32;15.10;99.90
29575;DHT22;16507;51.046;6.406;2023-05-10T10:46:12;15.30;99.90
29575;DHT22;16507;51.046;6.406;2023-05-10T10:51:24;15.30;99.90
29575;DHT22;16507;51.046;6.406;2023-05-10T10:53:49;15.30;99.90
29575;DHT22;16507;51.046;6.406;2023-05-10T10:56:15;15.50;99.90
29575;DHT22;16507;51.046;6.406;2023-05-10T10:58:41;15.60;99.90
29575;DHT22;16507;51.046;6.406;2023-05-10T11:01:14;15.60;99.90
29575;DHT22;16507;51.046;6.406;2023-05-10T11:03:41;15.50;99.90
29575;DHT22;16507;51.046;6.406;2023-05-10T11:06:31;15.40;99.90
29575;DHT22;16507;51.046;6.406;2023-05-10T11:08:57;15.40;99.90
29575;DHT22;16507;51.046;6.406;2023-05-10T11:11:23;15.40;99.90
29575;DHT22;16507;51.046;6.406;2023-05-10T11:13:49;15.40;99.90
29575;DHT22;16507;51.046;6.406;2023-05-10T11:16:24;15.20;99.90
29575;DHT22;16507;51.046;6.406;2023-05-10T11:18:57;15.40;99.90
29575;DHT22;16507;51.046;6.406;2023-05-10T11:21:23;15.60;99.90
29575;DHT22;16507;51.046;6.406;2023-05-10T11:23:54;15.60;99.90
29575;DHT22;16507;51.046;6.406;2023-05-10T11:26:29;15.90;99.90
29575;DHT22;16507;51.046;6.406;2023-05-10T11:28:55;15.70;99.90
29575;DHT22;16507;51.046;6.406;2023-05-10T11:31:22;15.70;99.90
29575;DHT22;16507;51.046;6.406;2023-05-10T11:33:50;15.80;99.90
29575;DHT22;16507;51.046;6.406;2023-05-10T11:36:35;16.00;99.90
29575;DHT22;16507;51.046;6.406;2023-05-10T11:39:01;16.20;99.90
29575;DHT22;16507;51.046;6.406;2023-05-10T11:41:28;16.00;99.90
29575;DHT22;16507;51.046;6.406;2023-05-10T11:43:56;16.00;99.90
29575;DHT22;16507;51.046;6.406;2023-05-10T11:46:24;16.00;99.90
29575;DHT22;16507;51.046;6.406;2023-05-10T11:48:52;16.10;99.90
29575;DHT22;16507;51.046;6.406;2023-05-10T11:51:22;16.30;99.90
29575;DHT22;16507;51.046;6.406;2023-05-10T11:53:49;16.50;99.90
29575;DHT22;16507;51.046;6.406;2023-05-10T11:56:16;16.90;99.90
29575;DHT22;16507;51.046;6.406;2023-05-10T11:58:41;17.40;99.90
29575;DHT22;16507;51.046;6.406;2023-05-10T12:01:08;17.70;99.90
29575;DHT22;16507;51.046;6.406;2023-05-10T12:03:35;17.50;99.90
29575;DHT22;16507;51.046;6.406;2023-05-10T12:06:01;17.70;99.90
29575;DHT22;16507;51.046;6.406;2023-05-10T12:08:29;17.20;99.90
29575;DHT22;16507;51.046;6.406;2023-05-10T12:11:08;17.10;99.90
29575;DHT22;16507;51.046;6.406;2023-05-10T12:13:38;17.90;99.90
29575;DHT22;16507;51.046;6.406;2023-05-10T12:16:20;18.00;99.90
29575;DHT22;16507;51.046;6.406;2023-05-10T12:18:56;18.20;99.90
29575;DHT22;16507;51.046;6.406;2023-05-10T12:21:22;18.20;99.90
29575;DHT22;16507;51.046;6.406;2023-05-10T12:23:52;18.10;99.90
29575;DHT22;16507;51.046;6.406;2023-05-10T12:26:18;18.10;99.90
29575;DHT22;16507;51.046;6.406;2023-05-10T12:28:46;18.40;99.90
29575;DHT22;16507;51.046;6.406;2023-05-10T12:31:12;18.90;99.90
29575;DHT22;16507;51.046;6.406;2023-05-10T12:33:38;19.10;99.90
29575;DHT22;16507;51.046;6.406;2023-05-10T12:36:08;18.30;99.90
29575;DHT22;16507;51.046;6.406;2023-05-10T12:38:41;17.90;99.90
29575;DHT22;16507;51.046;6.406;2023-05-10T12:41:12;17.70;99.90
29575;DHT22;16507;51.046;6.406;2023-05-10T12:43:39;18.00;99.90
29575;DHT22;16507;51.046;6.406;2023-05-10T12:46:09;18.20;99.90
29575;DHT22;16507;51.046;6.406;2023-05-10T12:48:36;18.10;99.90
29575;DHT22;16507;51.046;6.406;2023-05-10T12:51:02;17.90;99.90
29575;DHT22;16507;51.046;6.406;2023-05-10T12:53:28;17.90;99.90
29575;DHT22;16507;51.046;6.406;2023-05-10T12:55:54;18.10;99.90
29575;DHT22;16507;51.046;6.406;2023-05-10T12:58:20;17.80;99.90
29575;DHT22;16507;51.046;6.406;2023-05-10T13:00:45;17.70;99.90
29575;DHT22;16507;51.046;6.406;2023-05-10T13:03:11;17.50;99.90
29575;DHT22;16507;51.046;6.406;2023-05-10T13:05:37;17.50;99.90
29575;DHT22;16507;51.046;6.406;2023-05-10T13:08:03;17.90;99.90
29575;DHT22;16507;51.046;6.406;2023-05-10T13:10:30;17.90;99.90
29575;DHT22;16507;51.046;6.406;2023-05-10T13:12:56;17.60;99.90
29575;DHT22;16507;51.046;6.406;2023-05-10T13:15:22;17.30;99.90
29575;DHT22;16507;51.046;6.406;2023-05-10T13:17:48;17.30;99.90
29575;DHT22;16507;51.046;6.406;2023-05-10T13:20:13;17.30;99.90
29575;DHT22;16507;51.046;6.406;2023-05-10T13:22:40;17.20;99.90
29575;DHT22;16507;51.046;6.406;2023-05-10T13:25:06;17.30;99.90
29575;DHT22;16507;51.046;6.406;2023-05-10T13:27:32;17.40;99.90
29575;DHT22;16507;51.046;6.406;2023-05-10T13:29:57;17.40;99.90
29575;DHT22;16507;51.046;6.406;2023-05-10T13:32:25;17.50;99.90
29575;DHT22;16507;51.046;6.406;2023-05-10T13:34:51;17.40;99.90
29575;DHT22;16507;51.046;6.406;2023-05-10T13:37:16;17.50;99.90
29575;DHT22;16507;51.046;6.406;2023-05-10T13:39:42;17.70;99.90
29575;DHT22;16507;51.046;6.406;2023-05-10T13:42:07;18.20;99.90
29575;DHT22;16507;51.046;6.406;2023-05-10T13:44:33;18.60;99.90
29575;DHT22;16507;51.046;6.406;2023-05-10T13:46:59;18.40;99.90
29575;DHT22;16507;51.046;6.406;2023-05-10T13:49:24;18.80;99.90
29575;DHT22;16507;51.046;6.406;2023-05-10T13:51:50;18.90;99.90
29575;DHT22;16507;51.046;6.406;2023-05-10T13:54:16;18.90;99.90
29575;DHT22;16507;51.046;6.406;2023-05-10T13:56:45;19.00;99.90
29575;DHT22;16507;51.046;6.406;2023-05-10T13:59:12;18.70;99.90
29575;DHT22;16507;51.046;6.406;2023-05-10T14:01:40;19.00;99.90
29575;DHT22;16507;51.046;6.406;2023-05-10T14:04:05;19.30;99.90
29575;DHT22;16507;51.046;6.406;2023-05-10T14:06:32;19.60;99.90
29575;DHT22;16507;51.046;6.406;2023-05-10T14:08:57;19.60;99.90
29575;DHT22;16507;51.046;6.406;2023-05-10T14:11:23;19.60;99.90
29575;DHT22;16507;51.046;6.406;2023-05-10T14:13:49;19.40;99.90
29575;DHT22;16507;51.046;6.406;2023-05-10T14:16:14;19.20;99.90
29575;DHT22;16507;51.046;6.406;2023-05-10T14:18:40;19.00;99.90
29575;DHT22;16507;51.046;6.406;2023-05-10T14:21:05;18.90;99.90
29575;DHT22;16507;51.046;6.406;2023-05-10T14:23:34;18.50;99.90
29575;DHT22;16507;51.046;6.406;2023-05-10T14:26:00;18.30;99.90
29575;DHT22;16507;51.046;6.406;2023-05-10T14:28:25;18.30;99.90
29575;DHT22;16507;51.046;6.406;2023-05-10T14:30:51;18.50;99.90
29575;DHT22;16507;51.046;6.406;2023-05-10T14:33:17;18.60;99.90
29575;DHT22;16507;51.046;6.406;2023-05-10T14:35:42;18.40;99.90
29575;DHT22;16507;51.046;6.406;2023-05-10T14:38:08;18.20;99.90
29575;DHT22;16507;51.046;6.406;2023-05-10T14:40:34;17.70;99.90
29575;DHT22;16507;51.046;6.406;2023-05-10T14:43:00;17.50;99.90
29575;DHT22;16507;51.046;6.406;2023-05-10T14:45:26;17.40;99.90
29575;DHT22;16507;51.046;6.406;2023-05-10T14:47:51;17.50;99.90
29575;DHT22;16507;51.046;6.406;2023-05-10T14:50:17;18.00;99.90
29575;DHT22;16507;51.046;6.406;2023-05-10T14:52:43;19.00;99.90
29575;DHT22;16507;51.046;6.406;2023-05-10T14:55:09;19.10;99.90
29575;DHT22;16507;51.046;6.406;2023-05-10T14:57:35;18.70;99.90
29575;DHT22;16507;51.046;6.406;2023-05-10T15:00:02;18.50;99.90
29575;DHT22;16507;51.046;6.406;2023-05-10T15:02:29;18.20;99.90
29575;DHT22;16507;51.046;6.406;2023-05-10T15:04:54;17.90;99.90
29575;DHT22;16507;51.046;6.406;2023-05-10T15:07:20;17.50;99.90
29575;DHT22;16507;51.046;6.406;2023-05-10T15:09:45;17.60;99.90
29575;DHT22;16507;51.046;6.406;2023-05-10T15:12:11;17.50;99.90
29575;DHT22;16507;51.046;6.406;2023-05-10T15:14:37;17.50;99.90
29575;DHT22;16507;51.046;6.406;2023-05-10T15:17:05;17.50;99.90
29575;DHT22;16507;51.046;6.406;2023-05-10T15:19:31;17.50;99.90
29575;DHT22;16507;51.046;6.406;2023-05-10T15:21:58;17.40;99.90
29575;DHT22;16507;51.046;6.406;2023-05-10T15:24:24;17.40;99.90
29575;DHT22;16507;51.046;6.406;2023-05-10T15:26:50;17.40;99.90
29575;DHT22;16507;51.046;6.406;2023-05-10T15:29:16;17.50;99.90
29575;DHT22;16507;51.046;6.406;2023-05-10T15:31:46;17.40;99.90
29575;DHT22;16507;51.046;6.406;2023-05-10T15:34:13;17.00;99.90
29575;DHT22;16507;51.046;6.406;2023-05-10T15:36:39;16.90;99.90
29575;DHT22;16507;51.046;6.406;2023-05-10T15:39:04;17.00;99.90
29575;DHT22;16507;51.046;6.406;2023-05-10T15:41:30;16.90;99.90
29575;DHT22;16507;51.046;6.406;2023-05-10T15:43:57;16.90;99.90
29575;DHT22;16507;51.046;6.406;2023-05-10T15:46:25;17.00;99.90
29575;DHT22;16507;51.046;6.406;2023-05-10T15:48:51;17.10;99.90
29575;DHT22;16507;51.046;6.406;2023-05-10T15:51:17;17.00;99.90
29575;DHT22;16507;51.046;6.406;2023-05-10T15:53:44;16.90;99.90
29575;DHT22;16507;51.046;6.406;2023-05-10T15:56:09;16.80;99.90
29575;DHT22;16507;51.046;6.406;2023-05-10T15:58:36;16.80;99.90
29575;DHT22;16507;51.046;6.406;2023-05-10T16:01:03;16.80;99.90